x

Matinicus Rock, Me (mism1) Weather Station

6:00pm - Fri 24th Feb 2017 All times are EST. -5 hours from GMT.

  • Wind
    20mph, 22mph gusts
  • 空気 Temp 46°f
  • Sea Pressure 1011mb
  • Matinicus Rock, Me
  • Matinicus Rock, Me

More Historic Weather Station data

Upgrade to MSW Pro to gain access to the past 30 days of data for over 8000 Wavebouys and Weather Stations around the globe.

Join Pro

Comparision Forecast

View Surf forecast
   
Fri 02/24 6:00pm 20 22 mph 1011mb 46f
5:00pm 21 22 mph 1011mb 45f
4:00pm 17
mph
1011mb 45f
3:00pm 14
mph
1011.5mb 45f
2:00pm 13
mph
1012mb 45f
1:00pm 13 14 mph 1012.4mb 44f
12:00pm 3 5 mph 1013mb 44f
11:00am 7 8 mph 1013.6mb 44f
10:00am 11 13 mph 1013.8mb 44f
9:00am 11 13 mph 1013.5mb 44f
8:00am 8
mph
1013.1mb 46f
7:00am 7 8 mph 1012.9mb 46f
6:00am 11
mph
1012.2mb 44f
5:00am 13 14 mph 1011.7mb 44f
4:00am 14 15 mph 1010.7mb 44f
3:00am 17
mph
1010mb 44f
2:00am 20 21 mph 1009.5mb 45f
1:00am 21 22 mph 1008.8mb 45f
12:00am 24 26 mph 1008.5mb 46f
Thu 02/23 11:00pm 30 32 mph 1007.7mb 46f
10:00pm 30 32 mph 1007.3mb 46f
9:00pm 29 31 mph 1007.1mb 46f
8:00pm 30 32 mph 1006.9mb 45f
7:00pm 30 33 mph 1006.5mb 45f
6:00pm 18 21 mph 1006.8mb 44f
5:00pm 26 29 mph 1005.5mb 45f
4:00pm 22 24 mph 1005.9mb 44f
3:00pm 17 18 mph 1006.9mb 44f
2:00pm 14 15 mph 1007.6mb 42f
1:00pm 15 16 mph 1008.3mb 40f
12:00pm 20 23 mph 1009.1mb 40f
11:00am 23 25 mph 1009.8mb 40f
10:00am 22 23 mph 1010.4mb 40f
9:00am 17 20 mph 1011mb 42f
8:00am 16 17 mph 1010.8mb 41f
7:00am 15 16 mph 1011.1mb 40f
6:00am 14 15 mph 1010.7mb 40f
5:00am 11
mph
1011mb 40f
Wed 02/22 5:00am 16 17 mph 1016.1mb 40f
4:00am 18 21 mph 1016mb 40f
3:00am 24 25 mph 1016.5mb 40f
2:00am 24 26 mph 1017.1mb 39f
1:00am 24 26 mph 1018.1mb 39f
12:00am 24 26 mph 1018.8mb 38f
Tue 02/21 11:00pm 22 23 mph 1019.1mb 37f
10:00pm 18
mph
1020.5mb 36f
9:00pm 16 18 mph 1020.8mb 35f
8:00pm 13 14 mph 1021.8mb 34f
7:00pm 11 13 mph 1022.6mb 33f
6:00pm 9 10 mph 1023.3mb 33f
5:00pm 9 10 mph 1023.2mb 32f
4:00pm 8 9 mph 1024.1mb 33f
3:00pm 5 7 mph 1024.7mb 35f
2:00pm 5 6 mph 1025mb 34f
1:00pm 1 3 mph 1025.6mb 32f
12:00pm 3 5 mph 1026.3mb 31f
11:00am 7 8 mph 1027.3mb 30f
10:00am 10 13 mph 1027.9mb 29f
9:00am 15 17 mph 1028.1mb 28f
8:00am 18 21 mph 1028mb 28f
7:00am 22 23 mph 1027.9mb 29f
6:00am 17 22 mph 1027.7mb 29f
5:00am 20 22 mph 1027.1mb 29f
4:00am 20 23 mph 1027mb 30f
3:00am 24 26 mph 1026.7mb 31f
2:00am 24 28 mph 1027mb 31f
1:00am 24 28 mph 1026.4mb 32f